createdAt,value
2018-08-13T00:01:41.604Z,74.20
2018-08-13T00:05:06.984Z,74.40
2018-08-13T00:08:31.640Z,74.40
2018-08-13T00:11:56.292Z,74.20
2018-08-13T00:15:21.055Z,74.90
2018-08-13T00:18:45.817Z,74.80
2018-08-13T00:22:10.517Z,74.90
2018-08-13T00:25:35.450Z,75.10
2018-08-13T00:29:00.105Z,76.40
2018-08-13T00:32:24.789Z,76.10
2018-08-13T00:35:49.430Z,76.60
2018-08-13T00:39:14.428Z,76.70
2018-08-13T00:42:39.110Z,75.90
2018-08-13T00:46:03.778Z,76.40
2018-08-13T00:49:28.482Z,76.70
2018-08-13T00:52:53.235Z,76.70
2018-08-13T00:56:17.900Z,76.80
2018-08-13T00:59:42.598Z,76.60
2018-08-13T01:03:08.165Z,76.20
2018-08-13T01:06:32.844Z,76.30
2018-08-13T01:09:57.511Z,76.40
2018-08-13T01:13:22.151Z,75.80
2018-08-13T01:16:46.943Z,75.60
2018-08-13T01:20:13.436Z,77.60
2018-08-13T01:23:38.095Z,77.30
2018-08-13T01:27:02.775Z,77.60
2018-08-13T01:30:27.461Z,77.70
2018-08-13T01:33:52.098Z,77.00
2018-08-13T01:37:16.799Z,76.90
2018-08-13T01:40:41.443Z,76.40
2018-08-13T01:44:06.397Z,76.90
2018-08-13T01:47:31.023Z,76.90
2018-08-13T01:50:55.730Z,76.70
2018-08-13T01:54:20.585Z,76.90
2018-08-13T01:57:45.207Z,77.30
2018-08-13T02:01:09.922Z,77.70
2018-08-13T02:04:34.614Z,78.70
2018-08-13T02:07:59.288Z,79.00
2018-08-13T02:11:24.000Z,80.00
2018-08-13T02:14:48.729Z,80.60
2018-08-13T02:18:13.334Z,81.40
2018-08-13T02:21:38.094Z,81.50
2018-08-13T02:25:02.807Z,82.20
2018-08-13T02:28:27.448Z,80.60
2018-08-13T02:31:52.102Z,79.40
2018-08-13T02:35:16.778Z,78.10
2018-08-13T02:38:41.703Z,77.70
2018-08-13T02:42:06.414Z,77.60
2018-08-13T02:45:31.056Z,78.40
2018-08-13T02:48:55.774Z,79.30
2018-08-13T02:52:20.399Z,79.70
2018-08-13T02:55:45.086Z,80.70
2018-08-13T02:59:09.824Z,82.00
2018-08-13T03:02:34.466Z,82.40
2018-08-13T03:05:59.104Z,82.00
2018-08-13T03:09:23.764Z,82.30
2018-08-13T03:12:48.464Z,83.20
2018-08-13T03:16:13.129Z,83.80
2018-08-13T03:19:37.868Z,84.40
2018-08-13T03:23:02.565Z,85.10
2018-08-13T03:26:27.250Z,83.90
2018-08-13T03:29:51.968Z,84.00
2018-08-13T03:33:16.743Z,84.50
2018-08-13T03:36:41.482Z,86.00
2018-08-13T03:40:09.690Z,88.30
2018-08-13T03:43:34.445Z,89.50
2018-08-13T03:46:59.152Z,90.20
2018-08-13T03:50:23.912Z,90.50
2018-08-13T03:53:48.754Z,90.80
2018-08-13T03:57:13.435Z,90.90
2018-08-13T04:00:38.136Z,91.10
2018-08-13T04:04:02.947Z,90.70
2018-08-13T04:07:27.670Z,90.40
2018-08-13T04:10:52.389Z,89.80
2018-08-13T04:14:17.242Z,89.20
2018-08-13T04:17:42.207Z,87.90
2018-08-13T04:21:07.700Z,87.70
2018-08-13T04:24:32.464Z,85.60
2018-08-13T04:27:57.270Z,84.10
2018-08-13T04:31:21.942Z,82.80
2018-08-13T04:34:46.587Z,82.00
2018-08-13T04:38:11.252Z,81.90
2018-08-13T04:41:35.960Z,82.50
2018-08-13T04:45:00.709Z,81.90
2018-08-13T04:48:25.372Z,82.30
2018-08-13T04:51:50.040Z,81.50
2018-08-13T04:55:14.718Z,81.90
2018-08-13T04:58:39.379Z,81.80
2018-08-13T05:02:04.079Z,81.20
2018-08-13T05:05:28.704Z,81.20
2018-08-13T05:08:53.345Z,83.10
2018-08-13T05:12:18.966Z,82.80
2018-08-13T05:15:43.607Z,76.60
2018-08-13T05:19:08.352Z,76.60
2018-08-13T05:22:33.112Z,77.70
2018-08-13T05:25:57.770Z,75.50
2018-08-13T05:29:22.430Z,74.40
2018-08-13T05:32:47.279Z,74.10
2018-08-13T05:36:11.976Z,75.10
2018-08-13T05:39:36.705Z,73.80
2018-08-13T05:43:01.409Z,73.30
2018-08-13T05:46:26.114Z,73.00
2018-08-13T05:49:50.805Z,73.70
2018-08-13T05:53:15.571Z,74.30
2018-08-13T05:56:40.308Z,73.90
2018-08-13T06:00:07.752Z,74.50
2018-08-13T06:03:32.465Z,75.10
2018-08-13T06:06:57.198Z,75.10
2018-08-13T06:10:21.925Z,75.20
2018-08-13T06:13:46.743Z,76.00
2018-08-13T06:17:11.386Z,76.40
2018-08-13T06:20:36.053Z,76.60
2018-08-13T06:24:00.759Z,77.90
2018-08-13T06:27:25.511Z,78.10
2018-08-13T06:30:50.217Z,78.20
2018-08-13T06:34:14.942Z,78.50
2018-08-13T06:37:39.771Z,78.70
2018-08-13T06:41:04.484Z,78.60
2018-08-13T06:44:29.123Z,78.50
2018-08-13T06:47:53.825Z,78.80
2018-08-13T06:51:18.524Z,78.70
2018-08-13T06:54:43.349Z,79.50
2018-08-13T06:58:08.072Z,79.50
2018-08-13T07:01:32.789Z,79.50
2018-08-13T07:04:57.685Z,79.70
2018-08-13T07:08:22.419Z,79.20
2018-08-13T07:11:47.119Z,79.80
2018-08-13T07:15:12.199Z,79.40
2018-08-13T07:18:36.873Z,79.00
2018-08-13T07:22:01.656Z,78.40
2018-08-13T07:25:26.358Z,78.20
2018-08-13T07:28:51.163Z,77.20
2018-08-13T07:32:15.821Z,75.40
2018-08-13T07:35:40.587Z,75.20
2018-08-13T07:39:09.030Z,75.50
2018-08-13T07:42:33.676Z,75.30
2018-08-13T07:45:58.345Z,74.20
2018-08-13T07:49:23.021Z,74.40
2018-08-13T07:52:47.693Z,74.70
2018-08-13T07:56:12.395Z,73.80
2018-08-13T07:59:37.105Z,72.70
2018-08-13T08:03:01.838Z,72.50
2018-08-13T08:06:26.576Z,71.60
2018-08-13T08:09:51.313Z,71.40
2018-08-13T08:13:16.100Z,71.50
2018-08-13T08:16:40.860Z,70.90
2018-08-13T08:20:06.573Z,71.20
2018-08-13T08:23:31.351Z,70.40
2018-08-13T08:26:56.150Z,70.70
2018-08-13T08:30:20.946Z,69.70
2018-08-13T08:33:45.783Z,69.00
2018-08-13T08:37:10.471Z,69.20
2018-08-13T08:40:35.445Z,68.60
2018-08-13T08:44:00.060Z,68.10
2018-08-13T08:47:24.831Z,68.20
2018-08-13T08:50:49.545Z,68.00
2018-08-13T08:54:14.297Z,67.40
2018-08-13T08:57:39.071Z,67.20
2018-08-13T09:01:03.810Z,67.40
2018-08-13T09:04:28.464Z,68.30
2018-08-13T09:07:53.237Z,69.20
2018-08-13T09:11:17.947Z,69.00
2018-08-13T09:14:42.671Z,69.70
2018-08-13T09:18:24.803Z,69.60
2018-08-13T09:21:54.122Z,70.90
2018-08-13T09:25:36.327Z,69.30
2018-08-13T09:30:16.743Z,69.90
2018-08-13T09:33:58.462Z,70.30
2018-08-13T09:37:23.154Z,70.10
2018-08-13T09:40:47.861Z,70.70
2018-08-13T09:44:12.549Z,71.70
2018-08-13T09:47:38.070Z,71.10
2018-08-13T09:54:37.159Z,71.60
2018-08-13T09:58:01.987Z,72.40
2018-08-13T10:01:26.765Z,72.30
2018-08-13T10:04:51.553Z,72.10
2018-08-13T10:08:16.296Z,72.20
2018-08-13T10:11:41.016Z,72.10
2018-08-13T10:15:07.543Z,72.50
2018-08-13T10:18:32.238Z,72.50
2018-08-13T10:21:57.005Z,72.50
2018-08-13T10:25:21.737Z,72.40
2018-08-13T10:28:46.410Z,72.50
2018-08-13T10:32:11.175Z,72.00
2018-08-13T10:35:35.876Z,72.40
2018-08-13T10:39:00.563Z,72.40
2018-08-13T10:42:25.466Z,72.20
2018-08-13T10:45:51.137Z,72.50
2018-08-13T10:49:15.811Z,72.40
2018-08-13T10:52:40.976Z,72.90
2018-08-13T10:56:06.010Z,73.70
2018-08-13T10:59:30.669Z,73.60
2018-08-13T11:02:55.475Z,74.20
2018-08-13T11:06:20.151Z,75.10
2018-08-13T11:09:44.958Z,75.00
2018-08-13T11:13:09.685Z,75.60
2018-08-13T11:16:34.511Z,76.80
2018-08-13T11:19:59.282Z,78.30
2018-08-13T11:23:24.053Z,80.60
2018-08-13T11:26:48.761Z,82.40
2018-08-13T11:30:17.117Z,82.60
2018-08-13T11:33:42.013Z,87.20
2018-08-13T11:37:06.769Z,86.00
2018-08-13T11:40:31.446Z,85.50
2018-08-13T11:43:56.151Z,86.20
2018-08-13T11:47:20.843Z,85.50
2018-08-13T11:50:45.566Z,84.50
2018-08-13T11:54:10.216Z,83.10
2018-08-13T11:57:35.428Z,83.60
2018-08-13T12:01:00.180Z,81.00
2018-08-13T12:04:24.895Z,81.30
2018-08-13T12:07:49.784Z,79.90
2018-08-13T12:11:14.470Z,80.90
2018-08-13T12:14:39.179Z,80.70
2018-08-13T12:18:04.145Z,80.80
2018-08-13T12:21:29.468Z,79.60
2018-08-13T12:24:54.172Z,80.10
2018-08-13T12:28:18.898Z,79.50
2018-08-13T12:31:43.690Z,79.80
2018-08-13T12:35:08.519Z,79.50
2018-08-13T12:38:33.262Z,80.80
2018-08-13T12:41:57.972Z,79.50
2018-08-13T12:45:22.767Z,80.00
2018-08-13T12:48:47.489Z,80.40
2018-08-13T12:52:12.314Z,81.30
2018-08-13T12:55:37.060Z,82.40
2018-08-13T12:59:01.716Z,82.20
2018-08-13T13:02:26.378Z,82.70
2018-08-13T13:05:51.064Z,82.60
2018-08-13T13:09:15.783Z,82.50
2018-08-13T13:12:41.135Z,82.90
2018-08-13T13:16:05.868Z,83.20
2018-08-13T13:19:30.595Z,83.20
2018-08-13T13:22:55.294Z,83.10
2018-08-13T13:26:20.031Z,82.70
2018-08-13T13:29:44.669Z,82.20
2018-08-13T13:33:09.365Z,83.00
2018-08-13T13:36:33.991Z,82.70
2018-08-13T13:39:58.608Z,82.80
2018-08-13T13:43:23.413Z,83.00
2018-08-13T13:46:48.053Z,83.00
2018-08-13T13:50:15.436Z,83.80
2018-08-13T13:53:40.075Z,82.60
2018-08-13T13:57:04.815Z,83.00
2018-08-13T14:00:29.419Z,83.90
2018-08-13T14:03:54.102Z,83.40
2018-08-13T14:07:19.385Z,83.30
2018-08-13T14:10:44.033Z,84.50
2018-08-13T14:14:09.657Z,85.20
2018-08-13T14:17:34.397Z,85.20
2018-08-13T14:20:59.065Z,84.60
2018-08-13T14:24:23.697Z,84.80
2018-08-13T14:27:48.448Z,85.00
2018-08-13T14:31:13.048Z,86.00
2018-08-13T14:34:37.739Z,87.20
2018-08-13T14:38:02.403Z,88.30
2018-08-13T14:41:27.107Z,90.10
2018-08-13T14:44:51.811Z,90.90
2018-08-13T14:48:16.565Z,91.90
2018-08-13T14:51:41.214Z,92.30
2018-08-13T14:55:06.492Z,94.50
2018-08-13T14:58:31.189Z,93.70
2018-08-13T15:01:55.978Z,93.10
2018-08-13T15:05:20.639Z,92.50
2018-08-13T15:08:45.285Z,92.80
2018-08-13T15:12:10.044Z,93.10
2018-08-13T15:15:34.745Z,92.50
2018-08-13T15:18:59.479Z,92.50
2018-08-13T15:22:24.187Z,93.70
2018-08-13T15:25:48.843Z,93.80
2018-08-13T15:29:13.546Z,92.30
2018-08-13T15:32:38.265Z,93.20
2018-08-13T15:36:03.213Z,92.30
2018-08-13T15:39:27.883Z,91.80
2018-08-13T15:42:52.579Z,91.80
2018-08-13T15:46:17.503Z,91.90
2018-08-13T15:49:42.150Z,92.00
2018-08-13T15:53:06.956Z,91.80
2018-08-13T15:56:31.706Z,92.30
2018-08-13T15:59:56.493Z,91.10
2018-08-13T16:03:21.197Z,91.80
2018-08-13T16:06:46.073Z,91.60
2018-08-13T16:10:13.697Z,92.40
2018-08-13T16:13:38.381Z,92.00
2018-08-13T16:17:03.099Z,91.70
2018-08-13T16:20:27.819Z,91.40
2018-08-13T16:23:52.427Z,91.30
2018-08-13T16:27:17.142Z,91.50
2018-08-13T16:30:41.938Z,91.30
2018-08-13T16:34:06.748Z,91.10
2018-08-13T16:37:31.387Z,91.90
2018-08-13T16:40:56.043Z,91.40
2018-08-13T16:44:20.773Z,91.10
2018-08-13T16:47:45.545Z,90.70
2018-08-13T16:51:10.272Z,88.40
2018-08-13T16:54:35.060Z,86.40
2018-08-13T16:58:00.732Z,85.60
2018-08-13T17:01:25.475Z,85.20
2018-08-13T17:04:50.227Z,85.20
2018-08-13T17:08:15.077Z,84.10
2018-08-13T17:11:39.694Z,83.60
2018-08-13T17:15:05.037Z,84.30
2018-08-13T17:18:29.751Z,84.70
2018-08-13T17:21:54.620Z,85.60
2018-08-13T17:25:19.355Z,84.60
2018-08-13T17:28:44.107Z,83.80
2018-08-13T17:32:08.893Z,83.40
2018-08-13T17:35:35.351Z,80.70
2018-08-13T17:39:00.175Z,85.90
2018-08-13T17:42:24.813Z,90.30
2018-08-13T17:45:49.592Z,92.90
2018-08-13T17:49:14.267Z,94.20
2018-08-13T17:52:40.456Z,97.10
2018-08-13T17:56:05.236Z,94.70
2018-08-13T17:59:29.902Z,92.80
2018-08-13T18:02:54.642Z,91.70
2018-08-13T18:06:19.487Z,93.50
2018-08-13T18:09:44.198Z,92.20
2018-08-13T18:13:09.918Z,92.50
2018-08-13T18:16:34.706Z,91.80
2018-08-13T18:19:59.427Z,92.10
2018-08-13T18:23:24.084Z,91.50
2018-08-13T18:26:48.718Z,91.40
2018-08-13T18:30:20.408Z,92.80
2018-08-13T18:33:45.064Z,92.20
2018-08-13T18:37:09.900Z,93.20
2018-08-13T18:40:35.310Z,93.60
2018-08-13T18:44:00.031Z,93.30
2018-08-13T18:47:24.755Z,96.00
2018-08-13T18:50:49.465Z,98.70
2018-08-13T18:54:14.178Z,99.90
2018-08-13T18:57:38.881Z,99.90
2018-08-13T19:01:03.686Z,99.90
2018-08-13T19:04:28.443Z,99.90
2018-08-13T19:07:53.397Z,99.90
2018-08-13T19:11:19.125Z,99.90
2018-08-13T19:14:43.853Z,99.90
2018-08-13T19:18:08.519Z,99.90
2018-08-13T19:21:33.350Z,99.90
2018-08-13T19:24:58.072Z,99.90
2018-08-13T19:28:23.321Z,99.90
2018-08-13T19:31:47.977Z,99.90
2018-08-13T19:35:12.754Z,99.90
2018-08-13T19:38:37.520Z,99.90
2018-08-13T19:42:02.175Z,99.90
2018-08-13T19:45:26.866Z,99.90
2018-08-13T19:48:51.585Z,99.90
2018-08-13T19:52:16.256Z,99.90
2018-08-13T19:55:40.977Z,99.80
2018-08-13T19:59:05.621Z,99.90
2018-08-13T20:02:30.307Z,99.90
2018-08-13T20:05:55.082Z,99.90
2018-08-13T20:09:19.821Z,99.90
2018-08-13T20:12:45.325Z,99.90
2018-08-13T20:16:10.280Z,99.90
2018-08-13T20:19:35.048Z,99.90
2018-08-13T20:22:59.705Z,99.90
2018-08-13T20:26:24.439Z,99.90
2018-08-13T20:29:49.185Z,99.90
2018-08-13T20:33:13.846Z,99.90
2018-08-13T20:36:39.495Z,99.90
2018-08-13T20:40:04.256Z,99.90
2018-08-13T20:43:28.936Z,99.90
2018-08-13T20:46:53.672Z,99.50
2018-08-13T20:50:21.748Z,97.90
2018-08-13T20:53:46.500Z,97.30
2018-08-13T20:57:11.284Z,96.40
2018-08-13T21:00:36.033Z,96.30
2018-08-13T21:04:00.773Z,96.00
2018-08-13T21:07:25.418Z,96.00
2018-08-13T21:10:50.068Z,95.50
2018-08-13T21:14:14.769Z,95.50
2018-08-13T21:17:39.697Z,95.70
2018-08-13T21:21:04.441Z,95.60
2018-08-13T21:24:29.248Z,94.60
2018-08-13T21:27:54.087Z,94.20
2018-08-13T21:31:18.793Z,94.10
2018-08-13T21:34:44.135Z,94.20
2018-08-13T21:38:08.929Z,94.50
2018-08-13T21:41:33.708Z,95.10
2018-08-13T21:44:58.609Z,95.20
2018-08-13T21:48:23.402Z,96.10
2018-08-13T21:51:48.168Z,94.80
2018-08-13T21:55:12.853Z,94.10
2018-08-13T21:58:37.556Z,94.10
2018-08-13T22:02:02.409Z,93.80
2018-08-13T22:05:27.206Z,94.00
2018-08-13T22:08:51.917Z,94.00
2018-08-13T22:12:17.498Z,93.90
2018-08-13T22:15:42.209Z,94.10
2018-08-13T22:19:07.780Z,93.60
2018-08-13T22:22:32.441Z,93.50
2018-08-13T22:25:57.239Z,94.60
2018-08-13T22:29:21.986Z,94.20
2018-08-13T22:32:46.694Z,94.10
2018-08-13T22:36:11.528Z,94.50
2018-08-13T22:39:36.134Z,94.10
2018-08-13T22:43:00.965Z,93.70
2018-08-13T22:46:25.629Z,93.30
2018-08-13T22:49:51.301Z,93.80
2018-08-13T22:53:15.968Z,93.50
2018-08-13T22:56:41.271Z,93.40
2018-08-13T23:00:08.833Z,94.10
2018-08-13T23:03:33.597Z,93.90
2018-08-13T23:06:59.046Z,93.70
2018-08-13T23:10:24.851Z,94.20
2018-08-13T23:13:49.639Z,93.90
2018-08-13T23:17:14.347Z,93.40
2018-08-13T23:20:39.328Z,94.20
2018-08-13T23:24:03.996Z,95.50
2018-08-13T23:27:28.725Z,96.70
2018-08-13T23:30:53.434Z,96.10
2018-08-13T23:34:18.190Z,95.50
2018-08-13T23:37:43.399Z,94.20
2018-08-13T23:41:08.373Z,94.00
2018-08-13T23:44:33.081Z,94.50
2018-08-13T23:47:57.899Z,94.60
2018-08-13T23:51:22.607Z,94.30
2018-08-13T23:54:47.284Z,93.90
2018-08-13T23:58:13.905Z,93.80
